sensor_id;sensor_type;location;lat;lon;timestamp;pressure;altitude;pressure_sealevel;temperature;humidity
18275;BME280;19470;49.322;7.218;2023-02-01T00:01:42;99380.25;;;10.10;100.00
18275;BME280;19470;49.322;7.218;2023-02-01T00:04:09;99376.19;;;9.71;100.00
18275;BME280;19470;49.322;7.218;2023-02-01T00:06:35;99388.03;;;9.87;100.00
18275;BME280;19470;49.322;7.218;2023-02-01T00:09:03;99394.72;;;9.89;100.00
18275;BME280;19470;49.322;7.218;2023-02-01T00:11:30;99370.53;;;9.67;100.00
18275;BME280;19470;49.322;7.218;2023-02-01T00:13:57;99376.41;;;9.69;100.00
18275;BME280;19470;49.322;7.218;2023-02-01T00:16:25;99360.63;;;9.81;100.00
18275;BME280;19470;49.322;7.218;2023-02-01T00:18:56;99360.41;;;10.01;100.00
18275;BME280;19470;49.322;7.218;2023-02-01T00:21:23;99351.19;;;10.70;100.00
18275;BME280;19470;49.322;7.218;2023-02-01T00:23:49;99349.59;;;9.41;100.00
18275;BME280;19470;49.322;7.218;2023-02-01T00:26:19;99343.56;;;10.14;100.00
18275;BME280;19470;49.322;7.218;2023-02-01T00:28:46;99335.75;;;10.19;100.00
18275;BME280;19470;49.322;7.218;2023-02-01T00:31:12;99320.97;;;10.11;100.00
18275;BME280;19470;49.322;7.218;2023-02-01T00:33:40;99325.63;;;9.42;100.00
18275;BME280;19470;49.322;7.218;2023-02-01T00:36:08;99335.84;;;10.12;100.00
18275;BME280;19470;49.322;7.218;2023-02-01T00:38:37;99331.38;;;9.76;100.00
18275;BME280;19470;49.322;7.218;2023-02-01T00:41:04;99324.50;;;10.23;100.00
18275;BME280;19470;49.322;7.218;2023-02-01T00:43:33;99329.75;;;9.93;100.00
18275;BME280;19470;49.322;7.218;2023-02-01T00:46:00;99323.50;;;9.88;100.00
18275;BME280;19470;49.322;7.218;2023-02-01T00:48:27;99321.22;;;10.28;100.00
18275;BME280;19470;49.322;7.218;2023-02-01T00:50:54;99334.44;;;9.55;100.00
18275;BME280;19470;49.322;7.218;2023-02-01T00:53:20;99334.38;;;9.61;100.00
18275;BME280;19470;49.322;7.218;2023-02-01T00:55:47;99352.16;;;9.72;100.00
18275;BME280;19470;49.322;7.218;2023-02-01T00:58:14;99336.00;;;9.62;100.00
18275;BME280;19470;49.322;7.218;2023-02-01T01:00:42;99338.72;;;9.31;100.00
18275;BME280;19470;49.322;7.218;2023-02-01T01:03:08;99330.41;;;9.70;100.00
18275;BME280;19470;49.322;7.218;2023-02-01T01:05:44;99339.59;;;9.25;100.00
18275;BME280;19470;49.322;7.218;2023-02-01T01:08:10;99333.91;;;9.64;100.00
18275;BME280;19470;49.322;7.218;2023-02-01T01:10:37;99330.44;;;9.89;100.00
18275;BME280;19470;49.322;7.218;2023-02-01T01:13:03;99321.03;;;9.31;100.00
18275;BME280;19470;49.322;7.218;2023-02-01T01:15:30;99336.91;;;9.50;100.00
18275;BME280;19470;49.322;7.218;2023-02-01T01:17:57;99350.94;;;9.50;100.00
18275;BME280;19470;49.322;7.218;2023-02-01T01:20:24;99327.91;;;9.57;100.00
18275;BME280;19470;49.322;7.218;2023-02-01T01:22:50;99351.97;;;9.49;100.00
18275;BME280;19470;49.322;7.218;2023-02-01T01:25:17;99331.59;;;9.56;100.00
18275;BME280;19470;49.322;7.218;2023-02-01T01:27:43;99342.22;;;9.68;100.00
18275;BME280;19470;49.322;7.218;2023-02-01T01:30:10;99331.81;;;10.10;100.00
18275;BME280;19470;49.322;7.218;2023-02-01T01:32:37;99346.66;;;10.29;100.00
18275;BME280;19470;49.322;7.218;2023-02-01T01:35:06;99336.50;;;9.71;100.00
18275;BME280;19470;49.322;7.218;2023-02-01T01:37:32;99346.81;;;9.79;100.00
18275;BME280;19470;49.322;7.218;2023-02-01T01:40:00;99335.06;;;10.60;100.00
18275;BME280;19470;49.322;7.218;2023-02-01T01:42:27;99338.78;;;9.67;100.00
18275;BME280;19470;49.322;7.218;2023-02-01T01:44:57;99337.75;;;10.05;100.00
18275;BME280;19470;49.322;7.218;2023-02-01T01:47:24;99348.09;;;10.07;100.00
18275;BME280;19470;49.322;7.218;2023-02-01T01:49:52;99356.44;;;9.92;100.00
18275;BME280;19470;49.322;7.218;2023-02-01T01:52:20;99347.53;;;9.25;100.00
18275;BME280;19470;49.322;7.218;2023-02-01T01:54:48;99356.41;;;9.30;100.00
18275;BME280;19470;49.322;7.218;2023-02-01T01:57:20;99361.44;;;9.38;100.00
18275;BME280;19470;49.322;7.218;2023-02-01T01:59:53;99351.78;;;9.69;100.00
18275;BME280;19470;49.322;7.218;2023-02-01T02:02:21;99353.94;;;9.60;100.00
18275;BME280;19470;49.322;7.218;2023-02-01T02:04:47;99348.19;;;10.00;100.00
18275;BME280;19470;49.322;7.218;2023-02-01T02:07:17;99349.50;;;9.54;100.00
18275;BME280;19470;49.322;7.218;2023-02-01T02:09:47;99352.16;;;10.09;100.00
18275;BME280;19470;49.322;7.218;2023-02-01T02:12:13;99349.81;;;10.01;100.00
18275;BME280;19470;49.322;7.218;2023-02-01T02:14:40;99352.19;;;10.28;100.00
18275;BME280;19470;49.322;7.218;2023-02-01T02:17:15;99349.38;;;9.67;100.00
18275;BME280;19470;49.322;7.218;2023-02-01T02:20:20;99332.84;;;10.57;100.00
18275;BME280;19470;49.322;7.218;2023-02-01T02:26:03;99333.22;;;9.94;100.00
18275;BME280;19470;49.322;7.218;2023-02-01T02:28:58;99334.75;;;10.02;100.00
18275;BME280;19470;49.322;7.218;2023-02-01T02:31:54;99340.56;;;10.29;100.00
18275;BME280;19470;49.322;7.218;2023-02-01T02:34:28;99329.44;;;10.68;100.00
18275;BME280;19470;49.322;7.218;2023-02-01T02:37:04;99319.00;;;10.07;100.00
18275;BME280;19470;49.322;7.218;2023-02-01T02:39:42;99313.94;;;9.68;100.00
18275;BME280;19470;49.322;7.218;2023-02-01T02:42:24;99314.09;;;9.92;100.00
18275;BME280;19470;49.322;7.218;2023-02-01T02:45:08;99320.41;;;10.28;100.00
18275;BME280;19470;49.322;7.218;2023-02-01T02:47:57;99339.28;;;9.58;100.00
18275;BME280;19470;49.322;7.218;2023-02-01T02:50:34;99326.00;;;9.46;100.00
18275;BME280;19470;49.322;7.218;2023-02-01T02:53:24;99289.66;;;9.60;100.00
18275;BME280;19470;49.322;7.218;2023-02-01T02:56:11;99290.06;;;10.12;100.00
18275;BME280;19470;49.322;7.218;2023-02-01T02:58:57;99293.53;;;9.57;100.00
18275;BME280;19470;49.322;7.218;2023-02-01T03:01:42;99272.25;;;11.03;100.00
18275;BME280;19470;49.322;7.218;2023-02-01T03:04:27;99291.72;;;10.24;100.00
18275;BME280;19470;49.322;7.218;2023-02-01T03:06:55;99288.66;;;10.28;100.00
18275;BME280;19470;49.322;7.218;2023-02-01T03:09:25;99275.41;;;10.28;100.00
18275;BME280;19470;49.322;7.218;2023-02-01T03:11:56;99281.63;;;9.85;100.00
18275;BME280;19470;49.322;7.218;2023-02-01T03:14:43;99280.63;;;10.16;100.00
18275;BME280;19470;49.322;7.218;2023-02-01T03:17:14;99263.66;;;10.05;100.00
18275;BME280;19470;49.322;7.218;2023-02-01T03:19:45;99270.59;;;9.88;100.00
18275;BME280;19470;49.322;7.218;2023-02-01T03:22:18;99284.72;;;9.82;100.00
18275;BME280;19470;49.322;7.218;2023-02-01T03:24:49;99298.44;;;9.72;100.00
18275;BME280;19470;49.322;7.218;2023-02-01T03:27:21;99284.28;;;10.33;100.00
18275;BME280;19470;49.322;7.218;2023-02-01T03:29:52;99275.25;;;10.22;100.00
18275;BME280;19470;49.322;7.218;2023-02-01T03:32:22;99265.13;;;10.01;100.00
18275;BME280;19470;49.322;7.218;2023-02-01T03:34:49;99278.03;;;9.79;100.00
18275;BME280;19470;49.322;7.218;2023-02-01T03:37:22;99270.91;;;10.28;100.00
18275;BME280;19470;49.322;7.218;2023-02-01T03:39:54;99287.75;;;10.34;100.00
18275;BME280;19470;49.322;7.218;2023-02-01T03:42:27;99292.47;;;10.32;100.00
18275;BME280;19470;49.322;7.218;2023-02-01T03:45:00;99271.47;;;9.82;100.00
18275;BME280;19470;49.322;7.218;2023-02-01T03:47:33;99274.97;;;10.31;100.00
18275;BME280;19470;49.322;7.218;2023-02-01T03:50:05;99273.88;;;10.50;100.00
18275;BME280;19470;49.322;7.218;2023-02-01T03:52:38;99274.31;;;10.35;100.00
18275;BME280;19470;49.322;7.218;2023-02-01T03:55:07;99286.56;;;10.30;100.00
18275;BME280;19470;49.322;7.218;2023-02-01T03:57:37;99301.38;;;9.64;100.00
18275;BME280;19470;49.322;7.218;2023-02-01T04:00:07;99287.16;;;9.65;100.00
18275;BME280;19470;49.322;7.218;2023-02-01T04:02:34;99293.25;;;9.65;100.00
18275;BME280;19470;49.322;7.218;2023-02-01T04:05:01;99286.31;;;9.83;100.00
18275;BME280;19470;49.322;7.218;2023-02-01T04:07:27;99281.03;;;10.61;100.00
18275;BME280;19470;49.322;7.218;2023-02-01T04:09:55;99288.88;;;10.26;100.00
18275;BME280;19470;49.322;7.218;2023-02-01T04:12:22;99282.47;;;10.15;100.00
18275;BME280;19470;49.322;7.218;2023-02-01T04:14:48;99300.66;;;9.93;100.00
18275;BME280;19470;49.322;7.218;2023-02-01T04:17:15;99295.63;;;10.52;100.00
18275;BME280;19470;49.322;7.218;2023-02-01T04:19:41;99280.97;;;9.71;100.00
18275;BME280;19470;49.322;7.218;2023-02-01T04:22:08;99300.88;;;9.73;100.00
18275;BME280;19470;49.322;7.218;2023-02-01T04:24:34;99291.81;;;10.48;100.00
18275;BME280;19470;49.322;7.218;2023-02-01T04:27:02;99275.03;;;10.24;100.00
18275;BME280;19470;49.322;7.218;2023-02-01T04:29:29;99311.91;;;9.52;100.00
18275;BME280;19470;49.322;7.218;2023-02-01T04:31:55;99297.41;;;10.28;100.00
18275;BME280;19470;49.322;7.218;2023-02-01T04:34:22;99307.03;;;10.04;100.00
18275;BME280;19470;49.322;7.218;2023-02-01T04:36:49;99299.66;;;10.06;100.00
18275;BME280;19470;49.322;7.218;2023-02-01T04:39:16;99299.63;;;9.76;100.00
18275;BME280;19470;49.322;7.218;2023-02-01T04:41:43;99298.59;;;10.44;100.00
18275;BME280;19470;49.322;7.218;2023-02-01T04:44:13;99294.84;;;9.66;100.00
18275;BME280;19470;49.322;7.218;2023-02-01T04:46:40;99310.91;;;10.20;100.00
18275;BME280;19470;49.322;7.218;2023-02-01T04:49:08;99301.22;;;9.40;100.00
18275;BME280;19470;49.322;7.218;2023-02-01T04:51:35;99316.59;;;9.68;100.00
18275;BME280;19470;49.322;7.218;2023-02-01T04:54:01;99298.06;;;9.87;100.00
18275;BME280;19470;49.322;7.218;2023-02-01T04:56:28;99299.50;;;10.19;100.00
18275;BME280;19470;49.322;7.218;2023-02-01T04:58:54;99307.06;;;9.67;100.00
18275;BME280;19470;49.322;7.218;2023-02-01T05:01:23;99303.06;;;10.32;100.00
18275;BME280;19470;49.322;7.218;2023-02-01T05:03:49;99307.53;;;10.61;100.00
18275;BME280;19470;49.322;7.218;2023-02-01T05:06:16;99309.50;;;10.66;100.00
18275;BME280;19470;49.322;7.218;2023-02-01T05:08:42;99311.53;;;10.52;100.00
18275;BME280;19470;49.322;7.218;2023-02-01T05:11:09;99306.50;;;10.32;100.00
18275;BME280;19470;49.322;7.218;2023-02-01T05:13:56;99291.59;;;11.15;100.00
18275;BME280;19470;49.322;7.218;2023-02-01T05:16:23;99309.06;;;10.39;100.00
18275;BME280;19470;49.322;7.218;2023-02-01T05:18:49;99301.25;;;10.44;100.00
18275;BME280;19470;49.322;7.218;2023-02-01T05:21:15;99298.13;;;10.17;100.00
18275;BME280;19470;49.322;7.218;2023-02-01T05:23:42;99282.06;;;10.60;100.00
18275;BME280;19470;49.322;7.218;2023-02-01T05:26:26;99291.44;;;10.74;100.00
18275;BME280;19470;49.322;7.218;2023-02-01T05:28:53;99296.53;;;10.46;100.00
18275;BME280;19470;49.322;7.218;2023-02-01T05:31:19;99302.31;;;10.24;100.00
18275;BME280;19470;49.322;7.218;2023-02-01T05:33:47;99303.81;;;10.51;100.00
18275;BME280;19470;49.322;7.218;2023-02-01T05:36:14;99293.56;;;10.24;100.00
18275;BME280;19470;49.322;7.218;2023-02-01T05:38:40;99297.44;;;10.82;100.00
18275;BME280;19470;49.322;7.218;2023-02-01T05:41:07;99308.66;;;10.05;100.00
18275;BME280;19470;49.322;7.218;2023-02-01T05:43:34;99313.44;;;10.87;100.00
18275;BME280;19470;49.322;7.218;2023-02-01T05:46:00;99305.81;;;10.67;100.00
18275;BME280;19470;49.322;7.218;2023-02-01T05:48:27;99307.00;;;10.83;100.00
18275;BME280;19470;49.322;7.218;2023-02-01T05:50:55;99313.38;;;9.85;100.00
18275;BME280;19470;49.322;7.218;2023-02-01T05:53:21;99312.91;;;10.24;100.00
18275;BME280;19470;49.322;7.218;2023-02-01T05:55:48;99311.16;;;10.79;100.00
18275;BME280;19470;49.322;7.218;2023-02-01T05:58:14;99321.50;;;10.02;100.00
18275;BME280;19470;49.322;7.218;2023-02-01T06:00:41;99325.69;;;10.46;100.00
18275;BME280;19470;49.322;7.218;2023-02-01T06:03:07;99317.81;;;10.81;100.00
18275;BME280;19470;49.322;7.218;2023-02-01T06:05:34;99324.03;;;10.75;100.00
18275;BME280;19470;49.322;7.218;2023-02-01T06:08:02;99316.00;;;10.03;100.00
18275;BME280;19470;49.322;7.218;2023-02-01T06:10:28;99324.31;;;10.55;100.00
18275;BME280;19470;49.322;7.218;2023-02-01T06:12:55;99321.56;;;10.62;100.00
18275;BME280;19470;49.322;7.218;2023-02-01T06:15:21;99313.03;;;11.02;100.00
18275;BME280;19470;49.322;7.218;2023-02-01T06:17:48;99316.25;;;10.50;100.00
18275;BME280;19470;49.322;7.218;2023-02-01T06:20:16;99326.75;;;11.34;100.00
18275;BME280;19470;49.322;7.218;2023-02-01T06:22:42;99344.06;;;10.71;100.00
18275;BME280;19470;49.322;7.218;2023-02-01T06:25:11;99341.72;;;10.14;100.00
18275;BME280;19470;49.322;7.218;2023-02-01T06:27:37;99340.38;;;10.42;100.00
18275;BME280;19470;49.322;7.218;2023-02-01T06:30:05;99339.03;;;10.51;100.00
18275;BME280;19470;49.322;7.218;2023-02-01T06:32:32;99346.31;;;9.89;100.00
18275;BME280;19470;49.322;7.218;2023-02-01T06:34:59;99348.16;;;10.55;100.00
18275;BME280;19470;49.322;7.218;2023-02-01T06:37:26;99340.31;;;10.30;100.00
18275;BME280;19470;49.322;7.218;2023-02-01T06:39:53;99335.06;;;10.12;100.00
18275;BME280;19470;49.322;7.218;2023-02-01T06:42:20;99346.69;;;10.59;100.00
18275;BME280;19470;49.322;7.218;2023-02-01T06:44:48;99353.22;;;9.90;100.00
18275;BME280;19470;49.322;7.218;2023-02-01T06:47:14;99348.78;;;10.39;100.00
18275;BME280;19470;49.322;7.218;2023-02-01T06:49:41;99354.22;;;10.26;100.00
18275;BME280;19470;49.322;7.218;2023-02-01T06:52:07;99363.41;;;9.86;100.00
18275;BME280;19470;49.322;7.218;2023-02-01T06:54:34;99342.63;;;10.27;100.00
18275;BME280;19470;49.322;7.218;2023-02-01T06:57:02;99338.91;;;10.46;100.00
18275;BME280;19470;49.322;7.218;2023-02-01T06:59:30;99345.25;;;10.45;100.00
18275;BME280;19470;49.322;7.218;2023-02-01T07:01:56;99341.84;;;10.68;100.00
18275;BME280;19470;49.322;7.218;2023-02-01T07:04:23;99343.19;;;10.10;100.00
18275;BME280;19470;49.322;7.218;2023-02-01T07:06:49;99344.06;;;9.67;100.00
18275;BME280;19470;49.322;7.218;2023-02-01T07:09:16;99344.59;;;10.31;100.00
18275;BME280;19470;49.322;7.218;2023-02-01T07:11:42;99328.97;;;9.75;100.00
18275;BME280;19470;49.322;7.218;2023-02-01T07:14:10;99373.59;;;9.46;100.00
18275;BME280;19470;49.322;7.218;2023-02-01T07:16:38;99352.31;;;10.33;100.00
18275;BME280;19470;49.322;7.218;2023-02-01T07:19:05;99357.38;;;10.34;100.00
18275;BME280;19470;49.322;7.218;2023-02-01T07:21:31;99344.53;;;10.01;100.00
18275;BME280;19470;49.322;7.218;2023-02-01T07:23:58;99361.00;;;9.85;100.00
18275;BME280;19470;49.322;7.218;2023-02-01T07:26:25;99369.50;;;10.05;100.00
18275;BME280;19470;49.322;7.218;2023-02-01T07:28:51;99368.03;;;10.46;100.00
18275;BME280;19470;49.322;7.218;2023-02-01T07:31:18;99363.03;;;9.83;100.00
18275;BME280;19470;49.322;7.218;2023-02-01T07:33:48;99355.38;;;10.11;100.00
18275;BME280;19470;49.322;7.218;2023-02-01T07:36:17;99347.16;;;9.83;100.00
18275;BME280;19470;49.322;7.218;2023-02-01T07:38:44;99368.72;;;9.43;100.00
18275;BME280;19470;49.322;7.218;2023-02-01T07:41:12;99358.22;;;9.98;100.00
18275;BME280;19470;49.322;7.218;2023-02-01T07:43:38;99359.75;;;9.44;100.00
18275;BME280;19470;49.322;7.218;2023-02-01T07:46:05;99349.63;;;9.59;100.00
18275;BME280;19470;49.322;7.218;2023-02-01T07:48:32;99360.19;;;9.41;100.00
18275;BME280;19470;49.322;7.218;2023-02-01T07:51:02;99364.16;;;9.93;100.00
18275;BME280;19470;49.322;7.218;2023-02-01T07:53:31;99359.38;;;10.39;100.00
18275;BME280;19470;49.322;7.218;2023-02-01T07:55:58;99367.66;;;9.87;100.00
18275;BME280;19470;49.322;7.218;2023-02-01T07:58:25;99355.47;;;9.68;100.00
18275;BME280;19470;49.322;7.218;2023-02-01T08:00:53;99368.66;;;9.93;100.00
18275;BME280;19470;49.322;7.218;2023-02-01T08:03:37;99378.44;;;9.67;100.00
18275;BME280;19470;49.322;7.218;2023-02-01T08:06:06;99376.13;;;9.78;100.00
18275;BME280;19470;49.322;7.218;2023-02-01T08:08:33;99380.56;;;10.02;100.00
18275;BME280;19470;49.322;7.218;2023-02-01T08:11:00;99386.28;;;10.17;100.00
18275;BME280;19470;49.322;7.218;2023-02-01T08:13:27;99390.53;;;9.82;100.00
18275;BME280;19470;49.322;7.218;2023-02-01T08:15:57;99390.56;;;10.67;100.00
18275;BME280;19470;49.322;7.218;2023-02-01T08:18:24;99393.31;;;10.60;100.00
18275;BME280;19470;49.322;7.218;2023-02-01T08:20:51;99385.31;;;10.30;100.00
18275;BME280;19470;49.322;7.218;2023-02-01T08:23:19;99392.25;;;10.13;100.00
18275;BME280;19470;49.322;7.218;2023-02-01T08:25:45;99399.31;;;10.37;100.00
18275;BME280;19470;49.322;7.218;2023-02-01T08:28:12;99410.25;;;10.22;100.00
18275;BME280;19470;49.322;7.218;2023-02-01T08:30:39;99411.00;;;10.30;100.00
18275;BME280;19470;49.322;7.218;2023-02-01T08:33:07;99416.66;;;10.52;100.00
18275;BME280;19470;49.322;7.218;2023-02-01T08:35:35;99413.38;;;10.98;100.00
18275;BME280;19470;49.322;7.218;2023-02-01T08:38:02;99406.88;;;10.34;100.00
18275;BME280;19470;49.322;7.218;2023-02-01T08:40:31;99405.97;;;10.03;100.00
18275;BME280;19470;49.322;7.218;2023-02-01T08:42:58;99397.03;;;11.01;100.00
18275;BME280;19470;49.322;7.218;2023-02-01T08:45:27;99411.41;;;9.90;100.00
18275;BME280;19470;49.322;7.218;2023-02-01T08:47:54;99407.88;;;10.69;100.00
18275;BME280;19470;49.322;7.218;2023-02-01T08:50:22;99435.09;;;10.21;100.00
18275;BME280;19470;49.322;7.218;2023-02-01T08:52:48;99395.53;;;10.63;100.00
18275;BME280;19470;49.322;7.218;2023-02-01T08:55:15;99393.06;;;10.32;100.00
18275;BME280;19470;49.322;7.218;2023-02-01T08:57:43;99392.31;;;10.43;100.00
18275;BME280;19470;49.322;7.218;2023-02-01T09:00:13;99397.53;;;10.13;100.00
18275;BME280;19470;49.322;7.218;2023-02-01T09:02:40;99400.97;;;10.13;100.00
18275;BME280;19470;49.322;7.218;2023-02-01T09:05:07;99395.56;;;10.75;100.00
18275;BME280;19470;49.322;7.218;2023-02-01T09:07:34;99382.56;;;10.85;100.00
18275;BME280;19470;49.322;7.218;2023-02-01T09:10:02;99384.28;;;11.33;100.00
18275;BME280;19470;49.322;7.218;2023-02-01T09:12:29;99381.06;;;10.78;100.00
18275;BME280;19470;49.322;7.218;2023-02-01T09:14:57;99388.63;;;10.26;100.00
18275;BME280;19470;49.322;7.218;2023-02-01T09:17:25;99379.34;;;11.60;100.00
18275;BME280;19470;49.322;7.218;2023-02-01T09:19:51;99401.97;;;11.74;100.00
18275;BME280;19470;49.322;7.218;2023-02-01T09:22:18;99393.97;;;11.27;100.00
18275;BME280;19470;49.322;7.218;2023-02-01T09:24:44;99410.88;;;11.15;100.00
18275;BME280;19470;49.322;7.218;2023-02-01T09:27:11;99413.94;;;11.42;99.76
18275;BME280;19470;49.322;7.218;2023-02-01T09:29:37;99411.50;;;10.87;100.00
18275;BME280;19470;49.322;7.218;2023-02-01T09:32:05;99428.19;;;11.29;100.00
18275;BME280;19470;49.322;7.218;2023-02-01T09:34:33;99439.81;;;10.38;100.00
18275;BME280;19470;49.322;7.218;2023-02-01T09:36:59;99413.78;;;10.16;100.00
18275;BME280;19470;49.322;7.218;2023-02-01T09:39:26;99446.88;;;10.26;100.00
18275;BME280;19470;49.322;7.218;2023-02-01T09:41:59;99446.66;;;10.94;100.00
18275;BME280;19470;49.322;7.218;2023-02-01T09:44:48;99462.72;;;10.32;100.00
18275;BME280;19470;49.322;7.218;2023-02-01T09:47:18;99456.97;;;9.92;100.00
18275;BME280;19470;49.322;7.218;2023-02-01T09:49:51;99462.34;;;10.29;100.00
18275;BME280;19470;49.322;7.218;2023-02-01T09:52:23;99465.94;;;10.34;100.00
18275;BME280;19470;49.322;7.218;2023-02-01T09:54:55;99490.53;;;10.16;100.00
18275;BME280;19470;49.322;7.218;2023-02-01T09:57:29;99464.97;;;10.95;100.00
18275;BME280;19470;49.322;7.218;2023-02-01T10:00:00;99464.41;;;10.63;100.00
18275;BME280;19470;49.322;7.218;2023-02-01T10:02:32;99465.84;;;10.78;100.00
18275;BME280;19470;49.322;7.218;2023-02-01T10:05:02;99478.88;;;10.79;100.00
18275;BME280;19470;49.322;7.218;2023-02-01T10:07:36;99473.22;;;9.95;100.00
18275;BME280;19470;49.322;7.218;2023-02-01T10:10:10;99461.28;;;10.66;99.87
18275;BME280;19470;49.322;7.218;2023-02-01T10:13:04;99477.03;;;10.43;100.00
18275;BME280;19470;49.322;7.218;2023-02-01T10:15:43;99478.78;;;10.49;100.00
18275;BME280;19470;49.322;7.218;2023-02-01T10:18:24;99481.81;;;10.34;100.00
18275;BME280;19470;49.322;7.218;2023-02-01T10:21:00;99491.69;;;10.64;99.46
18275;BME280;19470;49.322;7.218;2023-02-01T10:23:46;99490.75;;;10.40;99.61
18275;BME280;19470;49.322;7.218;2023-02-01T10:26:20;99502.44;;;10.69;98.41
18275;BME280;19470;49.322;7.218;2023-02-01T10:28:49;99505.38;;;10.42;99.61
18275;BME280;19470;49.322;7.218;2023-02-01T10:31:17;99486.59;;;10.44;99.34
18275;BME280;19470;49.322;7.218;2023-02-01T10:33:47;99498.16;;;10.06;100.00
18275;BME280;19470;49.322;7.218;2023-02-01T10:36:17;99486.75;;;10.06;100.00
18275;BME280;19470;49.322;7.218;2023-02-01T10:38:46;99485.50;;;10.70;97.81
18275;BME280;19470;49.322;7.218;2023-02-01T10:41:15;99481.13;;;10.94;98.55
18275;BME280;19470;49.322;7.218;2023-02-01T10:43:44;99470.13;;;10.60;98.35
18275;BME280;19470;49.322;7.218;2023-02-01T10:46:13;99458.22;;;10.69;99.19
18275;BME280;19470;49.322;7.218;2023-02-01T10:48:39;99444.69;;;10.59;100.00
18275;BME280;19470;49.322;7.218;2023-02-01T10:51:12;99467.06;;;10.27;96.85
18275;BME280;19470;49.322;7.218;2023-02-01T10:53:44;99456.97;;;11.02;94.97
18275;BME280;19470;49.322;7.218;2023-02-01T10:56:12;99438.97;;;11.04;95.41
18275;BME280;19470;49.322;7.218;2023-02-01T10:58:44;99440.78;;;10.92;95.04
18275;BME280;19470;49.322;7.218;2023-02-01T11:01:16;99444.06;;;10.57;96.75
18275;BME280;19470;49.322;7.218;2023-02-01T11:03:44;99425.41;;;10.52;95.81
18275;BME280;19470;49.322;7.218;2023-02-01T11:06:24;99433.59;;;10.81;96.17
18275;BME280;19470;49.322;7.218;2023-02-01T11:08:55;99437.03;;;10.33;97.24
18275;BME280;19470;49.322;7.218;2023-02-01T11:11:23;99421.38;;;10.80;94.46
18275;BME280;19470;49.322;7.218;2023-02-01T11:13:55;99408.63;;;10.88;94.99
18275;BME280;19470;49.322;7.218;2023-02-01T11:16:29;99424.69;;;10.45;97.70
18275;BME280;19470;49.322;7.218;2023-02-01T11:18:58;99427.34;;;10.45;95.53
18275;BME280;19470;49.322;7.218;2023-02-01T11:21:27;99407.09;;;10.51;96.53
18275;BME280;19470;49.322;7.218;2023-02-01T11:23:54;99408.78;;;10.08;98.50
18275;BME280;19470;49.322;7.218;2023-02-01T11:26:22;99410.84;;;10.24;98.24
18275;BME280;19470;49.322;7.218;2023-02-01T11:28:57;99431.78;;;10.63;93.66
18275;BME280;19470;49.322;7.218;2023-02-01T11:31:25;99419.16;;;10.77;95.12
18275;BME280;19470;49.322;7.218;2023-02-01T11:33:54;99434.88;;;10.78;90.76
18275;BME280;19470;49.322;7.218;2023-02-01T11:36:26;99429.91;;;10.82;91.36
18275;BME280;19470;49.322;7.218;2023-02-01T11:39:07;99423.06;;;11.04;90.53
18275;BME280;19470;49.322;7.218;2023-02-01T11:41:34;99451.97;;;10.27;93.86
18275;BME280;19470;49.322;7.218;2023-02-01T11:44:21;99421.38;;;10.80;94.26
18275;BME280;19470;49.322;7.218;2023-02-01T11:46:48;99416.59;;;11.00;88.66
18275;BME280;19470;49.322;7.218;2023-02-01T11:49:21;99414.09;;;10.45;92.83
18275;BME280;19470;49.322;7.218;2023-02-01T11:51:58;99412.50;;;10.74;90.68
18275;BME280;19470;49.322;7.218;2023-02-01T11:54:37;99412.53;;;11.27;86.28
18275;BME280;19470;49.322;7.218;2023-02-01T11:57:17;99407.16;;;11.04;89.54
18275;BME280;19470;49.322;7.218;2023-02-01T11:59:58;99419.91;;;10.35;92.53
18275;BME280;19470;49.322;7.218;2023-02-01T12:05:34;99404.66;;;11.09;88.33
18275;BME280;19470;49.322;7.218;2023-02-01T12:08:27;99420.22;;;10.75;89.97
18275;BME280;19470;49.322;7.218;2023-02-01T12:11:24;99402.88;;;10.91;90.48
18275;BME280;19470;49.322;7.218;2023-02-01T12:13:57;99400.06;;;10.26;92.63
18275;BME280;19470;49.322;7.218;2023-02-01T12:16:36;99400.72;;;10.70;91.38
18275;BME280;19470;49.322;7.218;2023-02-01T12:19:20;99406.97;;;10.75;92.03
18275;BME280;19470;49.322;7.218;2023-02-01T12:21:59;99391.19;;;11.22;88.41
18275;BME280;19470;49.322;7.218;2023-02-01T12:27:55;99412.09;;;11.00;88.42
18275;BME280;19470;49.322;7.218;2023-02-01T12:30:46;99386.00;;;11.27;86.41
18275;BME280;19470;49.322;7.218;2023-02-01T12:33:21;99405.13;;;10.46;91.79
18275;BME280;19470;49.322;7.218;2023-02-01T12:36:03;99399.53;;;10.54;88.53
18275;BME280;19470;49.322;7.218;2023-02-01T12:38:42;99399.94;;;11.11;86.73
18275;BME280;19470;49.322;7.218;2023-02-01T12:41:22;99387.91;;;10.37;89.64
18275;BME280;19470;49.322;7.218;2023-02-01T12:43:56;99407.66;;;11.01;86.31
18275;BME280;19470;49.322;7.218;2023-02-01T12:46:27;99397.84;;;10.71;88.90
18275;BME280;19470;49.322;7.218;2023-02-01T12:49:01;99388.38;;;10.94;88.37
18275;BME280;19470;49.322;7.218;2023-02-01T12:51:31;99385.25;;;10.00;91.57
18275;BME280;19470;49.322;7.218;2023-02-01T12:54:02;99377.84;;;11.52;83.26
18275;BME280;19470;49.322;7.218;2023-02-01T12:56:36;99356.06;;;11.86;82.69
18275;BME280;19470;49.322;7.218;2023-02-01T12:59:05;99312.13;;;11.55;82.14
18275;BME280;19470;49.322;7.218;2023-02-01T13:01:41;99343.69;;;11.09;85.74
18275;BME280;19470;49.322;7.218;2023-02-01T13:04:14;99328.13;;;11.71;84.36
18275;BME280;19470;49.322;7.218;2023-02-01T13:06:46;99328.09;;;10.78;85.98
18275;BME280;19470;49.322;7.218;2023-02-01T13:09:20;99336.19;;;11.06;86.53
18275;BME280;19470;49.322;7.218;2023-02-01T13:11:53;99335.97;;;11.66;81.92
18275;BME280;19470;49.322;7.218;2023-02-01T13:14:27;99341.19;;;10.72;86.52
18275;BME280;19470;49.322;7.218;2023-02-01T13:16:59;99302.31;;;11.08;85.83
18275;BME280;19470;49.322;7.218;2023-02-01T13:19:30;99299.19;;;11.23;84.83
18275;BME280;19470;49.322;7.218;2023-02-01T13:22:05;99302.44;;;11.02;84.70